createdAt,value
2022-10-25T00:01:27.879Z,78.90
2022-10-25T00:03:56.048Z,78.90
2022-10-25T00:06:24.040Z,78.90
2022-10-25T00:08:51.589Z,79.00
2022-10-25T00:11:27.920Z,79.10
2022-10-25T00:13:57.751Z,79.30
2022-10-25T00:16:29.429Z,79.30
2022-10-25T00:18:57.166Z,79.30
2022-10-25T00:21:24.840Z,79.30
2022-10-25T00:23:52.633Z,79.30
2022-10-25T00:26:20.637Z,79.30
2022-10-25T00:28:48.401Z,79.30
2022-10-25T00:31:17.414Z,79.30
2022-10-25T00:33:45.668Z,79.40
2022-10-25T00:36:19.036Z,79.40
2022-10-25T00:38:46.403Z,79.40
2022-10-25T00:41:19.150Z,79.30
2022-10-25T00:43:50.311Z,79.30
2022-10-25T00:46:20.889Z,79.30
2022-10-25T00:49:15.816Z,79.30
2022-10-25T00:51:51.120Z,79.50
2022-10-25T00:54:32.719Z,79.10
2022-10-25T00:57:23.220Z,79.00
2022-10-25T00:59:51.067Z,79.00
2022-10-25T01:02:20.518Z,78.90
2022-10-25T01:04:47.966Z,78.90
2022-10-25T01:07:15.412Z,79.00
2022-10-25T01:09:43.594Z,79.00
2022-10-25T01:12:10.734Z,79.00
2022-10-25T01:14:42.679Z,79.10
2022-10-25T01:17:53.572Z,79.10
2022-10-25T01:20:59.108Z,79.50
2022-10-25T01:24:10.681Z,79.10
2022-10-25T01:27:08.529Z,78.90
2022-10-25T01:30:06.996Z,79.20
2022-10-25T01:32:46.429Z,79.20
2022-10-25T01:35:28.275Z,78.80
2022-10-25T01:38:22.054Z,78.80
2022-10-25T01:41:12.067Z,78.70
2022-10-25T01:43:52.895Z,78.90
2022-10-25T01:46:49.617Z,78.70
2022-10-25T01:49:28.274Z,79.00
2022-10-25T01:51:55.483Z,78.90
2022-10-25T01:54:25.822Z,78.90
2022-10-25T01:57:36.809Z,78.90
2022-10-25T02:00:18.169Z,79.20
2022-10-25T02:03:25.862Z,79.20
2022-10-25T02:05:55.965Z,79.20
2022-10-25T02:08:51.697Z,79.10
2022-10-25T02:11:32.875Z,79.20
2022-10-25T02:14:26.512Z,79.30
2022-10-25T02:17:23.148Z,79.10
2022-10-25T02:22:30.063Z,78.70
2022-10-25T02:24:58.511Z,78.50
2022-10-25T02:27:27.006Z,78.40
2022-10-25T02:29:55.230Z,78.40
2022-10-25T02:32:22.744Z,78.40
2022-10-25T02:34:51.146Z,78.40
2022-10-25T02:37:18.889Z,78.40
2022-10-25T02:39:46.798Z,78.50
2022-10-25T02:42:13.918Z,78.70
2022-10-25T02:44:41.106Z,78.60
2022-10-25T02:47:08.201Z,78.60
2022-10-25T02:49:35.394Z,78.60
2022-10-25T02:52:02.406Z,78.60
2022-10-25T02:54:29.641Z,78.60
2022-10-25T02:56:56.784Z,78.60
2022-10-25T02:59:24.494Z,78.60
2022-10-25T03:01:51.807Z,78.60
2022-10-25T03:04:18.801Z,78.80
2022-10-25T03:06:46.047Z,78.80
2022-10-25T03:09:13.135Z,78.70
2022-10-25T03:11:40.295Z,78.60
2022-10-25T03:14:07.488Z,78.60
2022-10-25T03:16:34.590Z,78.70
2022-10-25T03:19:01.881Z,78.70
2022-10-25T03:21:29.036Z,78.80
2022-10-25T03:23:56.247Z,78.80
2022-10-25T03:26:23.270Z,78.60
2022-10-25T03:28:50.465Z,78.40
2022-10-25T03:31:20.756Z,78.40
2022-10-25T03:33:48.452Z,78.30
2022-10-25T03:36:15.853Z,78.30
2022-10-25T03:38:42.972Z,78.50
2022-10-25T03:41:10.155Z,78.50
2022-10-25T03:43:37.319Z,78.50
2022-10-25T03:46:04.413Z,78.60
2022-10-25T03:48:31.610Z,78.70
2022-10-25T03:50:58.670Z,78.80
2022-10-25T03:53:26.372Z,78.80
2022-10-25T03:55:53.556Z,78.90
2022-10-25T03:58:20.772Z,79.00
2022-10-25T04:00:48.220Z,79.20
2022-10-25T04:03:15.393Z,79.40
2022-10-25T04:05:42.532Z,79.40
2022-10-25T04:08:09.654Z,79.40
2022-10-25T04:10:36.882Z,79.30
2022-10-25T04:13:04.212Z,79.30
2022-10-25T04:15:31.464Z,79.30
2022-10-25T04:17:58.655Z,79.40
2022-10-25T04:20:25.885Z,79.40
2022-10-25T04:22:57.347Z,79.40
2022-10-25T04:25:26.945Z,79.50
2022-10-25T04:27:55.146Z,79.40
2022-10-25T04:30:22.815Z,79.40
2022-10-25T04:32:50.619Z,79.50
2022-10-25T04:35:18.351Z,79.50
2022-10-25T04:37:45.592Z,79.60
2022-10-25T04:40:13.045Z,79.70
2022-10-25T04:42:40.352Z,79.80
2022-10-25T04:45:08.164Z,79.80
2022-10-25T04:47:35.574Z,79.80
2022-10-25T04:50:02.781Z,79.80
2022-10-25T04:52:30.691Z,79.90
2022-10-25T04:54:58.455Z,79.90
2022-10-25T04:57:26.205Z,79.90
2022-10-25T04:59:53.543Z,79.90
2022-10-25T05:02:20.803Z,79.90
2022-10-25T05:04:48.071Z,80.00
2022-10-25T05:07:18.553Z,80.00
2022-10-25T05:09:47.478Z,80.00
2022-10-25T05:12:15.202Z,79.90
2022-10-25T05:14:42.492Z,79.80
2022-10-25T05:17:09.596Z,79.60
2022-10-25T05:19:36.724Z,79.50
2022-10-25T05:22:04.069Z,79.60
2022-10-25T05:24:31.263Z,79.70
2022-10-25T05:26:58.549Z,79.80
2022-10-25T05:29:25.772Z,79.90
2022-10-25T05:31:52.852Z,79.90
2022-10-25T05:34:20.140Z,79.90
2022-10-25T05:36:47.341Z,79.90
2022-10-25T05:39:14.822Z,80.00
2022-10-25T05:41:41.915Z,80.10
2022-10-25T05:44:09.210Z,80.10
2022-10-25T05:46:36.437Z,80.20
2022-10-25T05:49:04.037Z,80.30
2022-10-25T05:51:35.284Z,80.40
2022-10-25T05:54:11.519Z,80.40
2022-10-25T05:56:39.638Z,80.40
2022-10-25T05:59:13.185Z,80.40
2022-10-25T06:01:45.866Z,80.50
2022-10-25T06:04:14.303Z,80.50
2022-10-25T06:06:43.266Z,80.40
2022-10-25T06:09:12.116Z,80.40
2022-10-25T09:50:51.761Z,90.30
2022-10-25T09:53:21.861Z,86.00
2022-10-25T09:55:58.335Z,85.10
2022-10-25T09:58:35.321Z,84.00
2022-10-25T10:01:13.846Z,83.40
2022-10-25T10:03:41.466Z,82.70
2022-10-25T10:06:34.654Z,82.40
2022-10-25T10:09:06.515Z,81.50
2022-10-25T10:11:34.826Z,81.80
2022-10-25T10:14:39.012Z,81.70
2022-10-25T10:17:12.162Z,81.10
2022-10-25T10:19:40.570Z,81.50
2022-10-25T10:22:14.063Z,81.50
2022-10-25T10:24:46.991Z,81.40
2022-10-25T10:27:26.304Z,81.40
2022-10-25T10:30:07.106Z,81.10
2022-10-25T10:32:38.557Z,80.90
2022-10-25T10:35:31.367Z,80.90
2022-10-25T10:38:28.879Z,79.90
2022-10-25T10:41:18.421Z,78.80
2022-10-25T10:43:45.754Z,79.00
2022-10-25T10:46:20.179Z,80.00
2022-10-25T10:48:55.607Z,79.90
2022-10-25T10:51:45.106Z,79.90
2022-10-25T10:54:46.412Z,79.30
2022-10-25T10:57:31.695Z,78.20
2022-10-25T11:00:01.427Z,79.10
2022-10-25T11:02:40.879Z,79.40
2022-10-25T11:05:30.008Z,79.20
2022-10-25T11:08:07.150Z,78.30
2022-10-25T11:10:36.945Z,79.00
2022-10-25T11:13:20.772Z,79.60
2022-10-25T11:16:12.362Z,79.00
2022-10-25T11:19:08.279Z,79.30
2022-10-25T11:21:57.913Z,77.80
2022-10-25T11:25:22.126Z,77.40
2022-10-25T11:28:01.358Z,77.40
2022-10-25T11:31:02.392Z,77.40
2022-10-25T11:33:44.392Z,75.10
2022-10-25T11:36:52.476Z,76.00
2022-10-25T11:39:48.191Z,75.00
2022-10-25T11:42:41.800Z,75.70
2022-10-25T11:45:43.562Z,76.20
2022-10-25T11:48:24.853Z,74.90
2022-10-25T11:51:10.824Z,74.50
2022-10-25T11:54:14.736Z,75.10
2022-10-25T11:56:47.461Z,73.70
2022-10-25T11:59:39.071Z,75.00
2022-10-25T12:02:33.861Z,74.10
2022-10-25T12:05:41.789Z,74.60
2022-10-25T12:08:43.804Z,72.20
2022-10-25T12:11:21.775Z,72.70
2022-10-25T12:13:58.283Z,74.00
2022-10-25T12:16:27.149Z,73.70
2022-10-25T12:19:15.285Z,74.00
2022-10-25T12:22:06.625Z,72.70
2022-10-25T12:24:44.531Z,72.20
2022-10-25T12:27:13.445Z,72.80
2022-10-25T12:29:48.132Z,73.40
2022-10-25T12:32:23.628Z,73.10
2022-10-25T12:34:54.386Z,71.80
2022-10-25T12:37:36.593Z,71.90
2022-10-25T12:40:06.064Z,71.50
2022-10-25T12:42:53.690Z,72.50
2022-10-25T12:45:45.444Z,71.40
2022-10-25T12:48:53.847Z,72.30
2022-10-25T12:52:23.877Z,70.60
2022-10-25T12:55:41.543Z,71.40
2022-10-25T12:58:21.770Z,71.00
2022-10-25T13:01:13.838Z,71.80
2022-10-25T13:03:51.391Z,70.60
2022-10-25T13:06:36.003Z,71.90
2022-10-25T13:09:24.778Z,71.20
2022-10-25T13:12:07.564Z,71.50
2022-10-25T13:14:43.864Z,71.80
2022-10-25T13:17:16.949Z,71.80
2022-10-25T13:19:56.197Z,71.30
2022-10-25T13:22:39.364Z,71.90
2022-10-25T13:25:12.235Z,70.10
2022-10-25T13:28:11.939Z,71.10
2022-10-25T13:30:39.153Z,70.80
2022-10-25T13:33:26.026Z,70.30
2022-10-25T13:35:53.297Z,68.30
2022-10-25T13:38:29.482Z,70.10
2022-10-25T13:41:07.826Z,69.10
2022-10-25T13:43:37.431Z,68.80
2022-10-25T13:46:04.809Z,69.70
2022-10-25T13:48:36.380Z,69.50
2022-10-25T13:51:16.845Z,69.20
2022-10-25T13:53:53.188Z,68.20
2022-10-25T13:56:23.090Z,69.10
2022-10-25T13:58:53.178Z,69.90
2022-10-25T14:01:21.558Z,69.70
2022-10-25T14:04:20.041Z,69.80
2022-10-25T14:06:47.702Z,67.60
2022-10-25T14:09:37.426Z,69.50
2022-10-25T14:12:07.704Z,67.20
2022-10-25T14:14:48.438Z,68.90
2022-10-25T14:17:22.231Z,66.50
2022-10-25T14:19:55.317Z,67.80
2022-10-25T14:22:38.987Z,67.90
2022-10-25T14:25:32.368Z,67.60
2022-10-25T14:28:21.739Z,65.10
2022-10-25T14:31:00.517Z,65.60
2022-10-25T14:33:39.426Z,65.10
2022-10-25T14:36:31.430Z,64.80
2022-10-25T14:39:20.533Z,62.80
2022-10-25T14:41:53.973Z,64.70
2022-10-25T14:44:31.744Z,63.10
2022-10-25T14:47:00.312Z,63.10
2022-10-25T14:49:28.031Z,64.30
2022-10-25T14:52:03.487Z,64.20
2022-10-25T14:54:34.419Z,62.20
2022-10-25T14:57:06.682Z,63.00
2022-10-25T14:59:46.405Z,63.20
2022-10-25T15:02:23.392Z,62.80
2022-10-25T15:04:54.339Z,62.10
2022-10-25T15:07:40.550Z,62.20
2022-10-25T15:10:30.995Z,59.20
2022-10-25T15:13:31.369Z,61.40
2022-10-25T15:16:03.013Z,58.50
2022-10-25T15:18:37.275Z,59.80
2022-10-25T15:21:15.495Z,58.80
2022-10-25T15:23:45.177Z,57.80
2022-10-25T15:26:34.631Z,58.30
2022-10-25T15:29:04.211Z,56.20
2022-10-25T15:31:32.999Z,58.10
2022-10-25T15:34:05.686Z,57.50
2022-10-25T15:36:34.531Z,57.00
2022-10-25T15:39:11.783Z,56.40
2022-10-25T15:41:41.585Z,56.00
2022-10-25T15:44:08.762Z,55.80
2022-10-25T15:46:38.108Z,55.70
2022-10-25T15:49:08.619Z,55.70
2022-10-25T15:51:43.949Z,56.00
2022-10-25T15:54:16.736Z,56.20
2022-10-25T15:56:45.194Z,56.30
2022-10-25T15:59:13.105Z,56.80
2022-10-25T16:01:46.881Z,57.10
2022-10-25T16:04:17.261Z,57.30
2022-10-25T16:06:46.506Z,57.80
2022-10-25T16:09:13.770Z,58.20
2022-10-25T16:11:46.954Z,58.60
2022-10-25T16:14:24.648Z,58.90
2022-10-25T16:16:52.070Z,59.20
2022-10-25T16:19:21.684Z,59.50
2022-10-25T16:21:49.128Z,59.90
2022-10-25T16:24:16.429Z,60.40
2022-10-25T16:26:46.999Z,60.50
2022-10-25T16:29:25.702Z,60.80
2022-10-25T16:31:54.125Z,60.90
2022-10-25T16:34:22.122Z,61.10
2022-10-25T16:36:50.603Z,61.40
2022-10-25T16:39:18.033Z,61.50
2022-10-25T16:41:47.446Z,61.70
2022-10-25T16:44:19.555Z,62.00
2022-10-25T16:46:47.649Z,62.40
2022-10-25T16:49:14.929Z,62.50
2022-10-25T16:51:44.251Z,62.70
2022-10-25T16:54:12.007Z,63.00
2022-10-25T16:56:39.765Z,63.10
2022-10-25T16:59:06.804Z,63.20
2022-10-25T17:01:38.929Z,63.30
2022-10-25T17:04:10.875Z,63.40
2022-10-25T17:06:42.193Z,63.60
2022-10-25T17:09:10.920Z,63.90
2022-10-25T17:11:38.192Z,64.00
2022-10-25T17:14:05.714Z,64.20
2022-10-25T17:16:33.429Z,64.30
2022-10-25T17:19:00.891Z,64.40
2022-10-25T17:21:28.746Z,64.50
2022-10-25T17:23:56.735Z,64.80
2022-10-25T17:26:23.960Z,65.00
2022-10-25T17:28:51.281Z,65.30
2022-10-25T17:31:18.461Z,65.50
2022-10-25T17:33:46.264Z,65.70
2022-10-25T17:36:16.963Z,65.90
2022-10-25T17:38:44.931Z,66.00
2022-10-25T17:41:13.388Z,66.10
2022-10-25T17:43:41.762Z,66.00
2022-10-25T17:46:18.143Z,66.10
2022-10-25T17:48:45.975Z,66.20
2022-10-25T17:51:15.861Z,66.30
2022-10-25T17:53:43.054Z,66.50
2022-10-25T17:56:16.960Z,66.50
2022-10-25T17:58:47.711Z,66.80
2022-10-25T18:01:21.440Z,66.80
2022-10-25T18:03:49.905Z,66.80
2022-10-25T18:08:57.942Z,66.80
2022-10-25T18:11:28.595Z,66.90
2022-10-25T18:13:59.153Z,67.00
2022-10-25T18:16:27.727Z,67.10
2022-10-25T18:18:58.429Z,67.20
2022-10-25T18:21:26.091Z,67.40
2022-10-25T18:24:05.130Z,67.50
2022-10-25T18:26:34.268Z,67.80
2022-10-25T18:29:01.447Z,67.50
2022-10-25T18:31:28.716Z,67.70
2022-10-25T18:33:56.354Z,67.80
2022-10-25T18:36:23.479Z,67.80
2022-10-25T18:38:51.624Z,67.70
2022-10-25T18:41:23.010Z,67.70
2022-10-25T18:43:50.935Z,67.90
2022-10-25T18:46:18.612Z,68.10
2022-10-25T18:48:53.168Z,68.30
2022-10-25T18:51:23.071Z,68.50
2022-10-25T18:53:57.044Z,68.40
2022-10-25T18:56:24.956Z,68.60
2022-10-25T18:58:53.899Z,68.60
2022-10-25T19:01:24.495Z,68.70
2022-10-25T19:03:52.113Z,68.80
2022-10-25T19:06:19.754Z,68.80
2022-10-25T19:08:49.171Z,68.70
2022-10-25T19:11:17.189Z,68.50
2022-10-25T19:13:47.589Z,68.50
2022-10-25T19:16:17.541Z,68.60
2022-10-25T19:18:44.859Z,68.70
2022-10-25T19:21:16.812Z,68.80
2022-10-25T19:23:46.275Z,69.10
2022-10-25T19:26:18.220Z,69.70
2022-10-25T19:28:45.689Z,68.90
2022-10-25T19:31:17.896Z,69.50
2022-10-25T19:33:47.343Z,68.80
2022-10-25T19:36:15.421Z,68.90
2022-10-25T19:38:45.296Z,69.00
2022-10-25T19:41:17.490Z,69.10
2022-10-25T19:43:45.564Z,69.30
2022-10-25T19:46:13.768Z,69.30
2022-10-25T19:48:41.008Z,69.40
2022-10-25T19:51:11.074Z,69.40
2022-10-25T19:53:38.732Z,69.60
2022-10-25T19:56:18.741Z,69.40
2022-10-25T19:58:46.415Z,69.60
2022-10-25T20:01:20.067Z,69.60
2022-10-25T20:03:51.724Z,69.80
2022-10-25T20:06:31.476Z,69.70
2022-10-25T20:09:01.257Z,69.70
2022-10-25T20:11:29.026Z,69.60
2022-10-25T20:13:58.863Z,69.50
2022-10-25T20:16:27.717Z,69.60
2022-10-25T20:18:55.813Z,69.70
2022-10-25T20:21:26.377Z,69.70
2022-10-25T20:23:57.081Z,69.70
2022-10-25T20:26:34.185Z,69.80
2022-10-25T20:29:05.620Z,70.00
2022-10-25T20:31:34.210Z,69.90
2022-10-25T20:34:04.539Z,69.80
2022-10-25T20:36:32.318Z,69.90
2022-10-25T20:38:59.550Z,69.90
2022-10-25T20:41:30.201Z,69.90
2022-10-25T20:44:00.356Z,70.10
2022-10-25T20:46:29.663Z,70.20
2022-10-25T20:48:58.550Z,70.30
2022-10-25T20:51:26.303Z,70.40
2022-10-25T20:53:54.197Z,70.40
2022-10-25T20:56:22.639Z,70.50
2022-10-25T20:58:49.974Z,70.60
2022-10-25T21:01:17.663Z,70.70
2022-10-25T21:03:44.987Z,70.70
2022-10-25T21:06:13.503Z,70.60
2022-10-25T21:08:40.795Z,70.60
2022-10-25T21:11:12.156Z,70.50
2022-10-25T21:13:40.107Z,70.50
2022-10-25T21:16:15.734Z,70.50
2022-10-25T21:18:43.771Z,70.60
2022-10-25T21:21:20.037Z,70.40
2022-10-25T21:23:47.999Z,70.50
2022-10-25T21:26:18.239Z,70.50
2022-10-25T21:28:45.654Z,70.50
2022-10-25T21:31:15.443Z,70.60
2022-10-25T21:33:49.957Z,70.90
2022-10-25T21:36:20.168Z,70.90
2022-10-25T21:38:47.386Z,70.80
2022-10-25T21:41:19.825Z,70.80
2022-10-25T21:43:49.286Z,70.80
2022-10-25T21:46:18.465Z,70.80
2022-10-25T21:48:47.924Z,70.80
2022-10-25T21:51:15.591Z,70.80
2022-10-25T21:53:43.392Z,70.80
2022-10-25T21:56:17.361Z,70.80
2022-10-25T21:58:47.430Z,70.80
2022-10-25T22:01:21.264Z,70.70
2022-10-25T22:03:49.033Z,70.70
2022-10-25T22:06:19.816Z,70.70
2022-10-25T22:08:47.589Z,70.70
2022-10-25T22:11:24.652Z,70.80
2022-10-25T22:14:04.839Z,71.20
2022-10-25T22:16:33.646Z,71.30
2022-10-25T22:19:05.727Z,71.00
2022-10-25T22:21:38.867Z,71.10
2022-10-25T22:24:08.648Z,71.00
2022-10-25T22:26:37.513Z,71.10
2022-10-25T22:29:05.352Z,71.10
2022-10-25T22:31:33.413Z,71.10
2022-10-25T22:34:04.199Z,71.10
2022-10-25T22:36:37.475Z,71.20
2022-10-25T22:39:06.641Z,71.10
2022-10-25T22:41:34.251Z,71.10
2022-10-25T22:44:01.982Z,71.10
2022-10-25T22:46:32.958Z,71.20
2022-10-25T22:49:05.593Z,71.30
2022-10-25T22:51:33.280Z,71.40
2022-10-25T22:54:00.652Z,71.50
2022-10-25T22:56:30.861Z,71.50
2022-10-25T22:59:01.391Z,71.60
2022-10-25T23:01:32.041Z,71.70
2022-10-25T23:04:00.570Z,71.90
2022-10-25T23:06:30.861Z,71.90
2022-10-25T23:09:01.664Z,72.00
2022-10-25T23:11:31.797Z,72.20
2022-10-25T23:14:00.138Z,72.20
2022-10-25T23:16:28.557Z,72.20
2022-10-25T23:18:56.691Z,72.00
2022-10-25T23:21:27.638Z,71.80
2022-10-25T23:23:56.830Z,71.70
2022-10-25T23:26:34.338Z,71.70
2022-10-25T23:29:01.581Z,71.70
2022-10-25T23:31:29.797Z,71.80
2022-10-25T23:34:00.384Z,71.80
2022-10-25T23:36:31.999Z,71.80
2022-10-25T23:38:59.263Z,71.80
2022-10-25T23:41:26.477Z,71.80
2022-10-25T23:43:53.568Z,71.70
2022-10-25T23:46:20.723Z,71.70
2022-10-25T23:48:48.389Z,71.70
2022-10-25T23:51:18.685Z,71.80
2022-10-25T23:53:46.176Z,71.80
2022-10-25T23:56:14.647Z,71.80
2022-10-25T23:58:42.139Z,71.80
